Time;durP1;ratioP1;P1;durP2;ratioP2;P2;SDS_P1;SDS_P2;PMS_P1;PMS_P2;Temp;Humidity;BMP_temperature;BMP_pressure;BME280_temperature;BME280_humidity;BME280_pressure;Samples;Min_cycle;Max_cycle;Signal;HPM_P1;HPM_P2
2022/10/20 00:01:08;;;;;;;2.10;0.95;;;19.70;52.70;;;;;;4935408;29;20308;-36
2022/10/20 00:03:39;;;;;;;3.00;0.95;;;19.70;52.70;;;;;;4935142;29;20209;-35
2022/10/20 00:06:12;;;;;;;3.00;1.02;;;19.70;52.70;;;;;;4935045;29;20235;-37
2022/10/20 00:08:45;;;;;;;3.33;1.00;;;19.70;52.70;;;;;;4916667;29;20207;-35
2022/10/20 00:11:17;;;;;;;2.05;1.00;;;19.70;52.70;;;;;;4916823;29;20207;-39
2022/10/20 00:13:50;;;;;;;1.67;1.00;;;19.80;52.70;;;;;;4935601;29;20231;-36
2022/10/20 00:16:22;;;;;;;2.72;0.90;;;19.80;52.60;;;;;;4934292;29;20231;-35
2022/10/20 00:18:53;;;;;;;2.08;1.00;;;19.80;52.60;;;;;;4934589;29;20421;-36
2022/10/20 00:21:25;;;;;;;3.60;1.40;;;19.90;52.60;;;;;;4935224;29;20207;-35
2022/10/20 00:24:00;;;;;;;3.28;1.08;;;19.90;52.60;;;;;;4934450;29;20290;-35
2022/10/20 00:26:32;;;;;;;3.58;1.20;;;19.90;52.60;;;;;;4935553;29;20238;-35
2022/10/20 00:29:04;;;;;;;2.60;1.10;;;19.90;52.50;;;;;;4938578;29;20198;-35
2022/10/20 00:31:35;;;;;;;2.58;1.15;;;20.00;52.60;;;;;;4953415;28;20198;-35
2022/10/20 00:34:06;;;;;;;3.00;1.08;;;20.00;52.50;;;;;;4953145;28;20261;-35
2022/10/20 00:36:37;;;;;;;3.17;0.90;;;20.00;52.50;;;;;;4946423;28;20219;-35
2022/10/20 00:39:14;;;;;;;3.08;1.20;;;20.00;52.60;;;;;;4933435;29;20211;-35
2022/10/20 00:41:45;;;;;;;3.22;1.08;;;20.10;52.60;;;;;;4933750;29;20203;-35
2022/10/20 00:44:53;;;;;;;4.65;1.27;;;20.10;52.50;;;;;;4933338;29;20566;-35
2022/10/20 00:47:33;;;;;;;3.63;1.25;;;20.20;52.60;;;;;;4933552;29;20220;-39
2022/10/20 00:50:08;;;;;;;2.92;0.77;;;20.20;53.10;;;;;;4933858;29;20811;-35
2022/10/20 00:52:40;;;;;;;1.60;0.80;;;20.20;52.50;;;;;;4933548;29;20608;-35
2022/10/20 00:55:16;;;;;;;3.28;1.25;;;20.20;52.50;;;;;;4933252;29;20227;-35
2022/10/20 00:57:50;;;;;;;4.38;1.30;;;20.30;52.50;;;;;;4933307;29;20211;-35
2022/10/20 01:00:21;;;;;;;2.42;0.88;;;20.30;52.50;;;;;;4935123;29;20226;-35
2022/10/20 01:02:54;;;;;;;3.67;1.17;;;20.30;52.50;;;;;;4933407;29;20195;-35
2022/10/20 01:05:24;;;;;;;4.30;1.15;;;20.30;52.50;;;;;;4933372;29;20226;-37
2022/10/20 01:07:55;;;;;;;2.95;1.00;;;20.40;52.50;;;;;;4932986;29;20206;-38
2022/10/20 01:10:33;;;;;;;2.67;1.05;;;20.40;52.50;;;;;;4932884;29;20203;-35
2022/10/20 01:13:10;;;;;;;2.80;0.93;;;20.50;52.60;;;;;;4932578;29;20656;-35
2022/10/20 01:15:47;;;;;;;2.50;1.20;;;20.50;52.70;;;;;;4931996;29;20219;-39
2022/10/20 01:18:24;;;;;;;2.80;0.88;;;20.50;52.50;;;;;;4932792;29;20206;-38
2022/10/20 01:21:17;;;;;;;3.55;0.95;;;20.60;52.50;;;;;;4932772;29;20203;-35
2022/10/20 01:24:11;;;;;;;1.63;0.90;;;20.60;52.40;;;;;;4928954;29;20210;-36
2022/10/20 01:27:12;;;;;;;2.78;1.05;;;20.70;52.40;;;;;;4931468;29;20228;-35
2022/10/20 01:29:48;;;;;;;1.63;0.80;;;20.70;52.40;;;;;;4932399;29;20214;-35
2022/10/20 01:32:23;;;;;;;2.50;0.90;;;20.70;52.30;;;;;;4932716;29;20203;-35
2022/10/20 01:35:04;;;;;;;2.50;1.20;;;20.80;52.30;;;;;;4932531;29;20303;-36
2022/10/20 01:37:41;;;;;;;2.03;0.88;;;20.80;52.30;;;;;;4932690;29;20223;-35
2022/10/20 01:40:18;;;;;;;3.53;0.80;;;20.90;52.20;;;;;;4933281;29;20203;-35
2022/10/20 01:42:52;;;;;;;2.20;0.90;;;20.90;51.90;;;;;;4932746;29;20195;-41
2022/10/20 01:45:30;;;;;;;4.68;0.80;;;21.00;51.70;;;;;;4932294;29;20203;-35
2022/10/20 01:48:03;;;;;;;2.22;0.80;;;21.00;51.80;;;;;;4932365;29;20203;-35
2022/10/20 01:50:35;;;;;;;0.90;0.70;;;21.10;51.80;;;;;;4932319;29;20204;-35
2022/10/20 01:53:06;;;;;;;2.38;0.93;;;21.10;51.70;;;;;;4931769;29;20249;-35
2022/10/20 01:55:37;;;;;;;3.75;0.80;;;21.10;51.80;;;;;;4932290;29;20253;-35
2022/10/20 01:58:23;;;;;;;3.03;1.00;;;21.20;51.90;;;;;;4932324;29;20211;-35
2022/10/20 02:00:57;;;;;;;3.35;0.93;;;21.20;51.90;;;;;;4931936;29;20208;-36
2022/10/20 02:03:39;;;;;;;1.45;0.93;;;21.20;51.90;;;;;;4932594;29;20647;-36
2022/10/20 02:06:23;;;;;;;2.05;0.82;;;21.30;51.80;;;;;;4932992;29;20227;-40
2022/10/20 02:08:57;;;;;;;2.60;1.05;;;21.30;51.50;;;;;;4933201;29;20718;-36
2022/10/20 02:11:32;;;;;;;1.90;0.90;;;21.40;51.30;;;;;;4932759;29;20547;-40
2022/10/20 02:14:04;;;;;;;1.92;0.70;;;21.40;51.10;;;;;;4933354;29;20227;-35
2022/10/20 02:16:41;;;;;;;0.93;0.52;;;21.40;51.00;;;;;;4933196;29;20583;-36
2022/10/20 02:19:13;;;;;;;3.67;1.02;;;21.50;50.80;;;;;;4933838;29;20210;-35
2022/10/20 02:21:44;;;;;;;2.25;0.65;;;21.50;50.80;;;;;;4932722;29;20679;-36
2022/10/20 02:24:18;;;;;;;2.28;0.85;;;21.50;50.70;;;;;;4933596;29;20195;-35
2022/10/20 02:26:49;;;;;;;1.67;0.77;;;21.50;50.60;;;;;;4932926;29;20589;-36
2022/10/20 02:29:22;;;;;;;3.28;0.90;;;21.60;50.60;;;;;;4933781;29;20226;-45
2022/10/20 02:31:56;;;;;;;1.05;0.60;;;21.60;50.50;;;;;;4930024;29;20289;-37
2022/10/20 02:34:29;;;;;;;1.23;0.60;;;21.60;50.40;;;;;;4914269;29;20223;-35
2022/10/20 02:37:00;;;;;;;2.92;0.70;;;21.70;50.40;;;;;;4930832;29;20683;-35
2022/10/20 02:39:31;;;;;;;3.13;0.70;;;21.70;50.40;;;;;;4917886;29;20211;-39
2022/10/20 02:42:02;;;;;;;1.95;0.73;;;21.70;50.20;;;;;;4932614;29;20207;-43
2022/10/20 02:44:32;;;;;;;1.50;0.57;;;21.80;50.10;;;;;;4933193;29;20220;-36
2022/10/20 02:47:05;;;;;;;2.20;0.90;;;21.80;49.90;;;;;;4932912;29;20700;-40
2022/10/20 02:49:39;;;;;;;1.73;0.65;;;21.90;49.90;;;;;;4933432;29;20205;-39
2022/10/20 02:52:09;;;;;;;1.70;0.80;;;21.90;49.70;;;;;;4933517;29;20207;-36
2022/10/20 02:54:40;;;;;;;1.20;0.60;;;22.00;49.70;;;;;;4932818;29;20223;-36
2022/10/20 02:57:11;;;;;;;2.97;0.90;;;22.00;49.70;;;;;;4932874;29;20224;-44
2022/10/20 02:59:41;;;;;;;1.55;0.80;;;22.10;49.70;;;;;;4935413;29;20195;-41
2022/10/20 03:02:14;;;;;;;1.38;0.80;;;22.10;49.60;;;;;;4936915;29;20204;-36
2022/10/20 03:04:45;;;;;;;1.63;0.60;;;22.10;49.50;;;;;;4943507;29;20562;-36
2022/10/20 03:07:15;;;;;;;2.40;0.70;;;22.20;49.40;;;;;;4955179;28;20219;-35
2022/10/20 03:09:46;;;;;;;0.82;0.38;;;22.20;49.20;;;;;;4955037;28;20198;-37
2022/10/20 03:12:17;;;;;;;3.03;0.73;;;22.30;49.20;;;;;;4944427;28;20207;-36
2022/10/20 03:14:48;;;;;;;1.10;0.55;;;22.30;49.00;;;;;;4928540;29;20231;-40
2022/10/20 03:17:20;;;;;;;2.65;0.77;;;22.30;48.90;;;;;;4936219;29;20440;-36
2022/10/20 03:19:51;;;;;;;1.52;0.70;;;22.40;48.70;;;;;;4936518;29;20202;-41
2022/10/20 03:22:22;;;;;;;1.08;0.70;;;22.40;48.60;;;;;;4935975;29;20211;-36
2022/10/20 03:24:52;;;;;;;2.88;0.80;;;22.40;48.40;;;;;;4936072;29;20192;-36
2022/10/20 03:27:23;;;;;;;0.90;0.70;;;22.50;48.20;;;;;;4936350;29;20227;-43
2022/10/20 03:29:54;;;;;;;0.70;0.52;;;22.50;48.10;;;;;;4936122;29;20196;-37
2022/10/20 03:32:27;;;;;;;1.73;0.60;;;22.50;48.00;;;;;;4936212;29;20581;-42
2022/10/20 03:34:59;;;;;;;1.48;0.68;;;22.60;47.90;;;;;;4935370;29;20230;-40
2022/10/20 03:37:29;;;;;;;1.42;0.50;;;22.60;47.90;;;;;;4935323;29;20224;-41
2022/10/20 03:40:00;;;;;;;1.13;0.63;;;22.60;48.20;;;;;;4935111;29;20188;-45
2022/10/20 03:42:34;;;;;;;1.20;0.60;;;22.70;47.30;;;;;;4941850;29;20194;-43
2022/10/20 03:45:05;;;;;;;2.85;0.70;;;22.70;47.10;;;;;;4948239;28;20195;-40
2022/10/20 03:47:37;;;;;;;3.33;0.80;;;22.70;46.70;;;;;;4935776;29;20697;-39
2022/10/20 03:50:08;;;;;;;1.85;0.60;;;22.70;45.80;;;;;;4935533;29;20691;-41
2022/10/20 03:52:39;;;;;;;1.92;0.70;;;22.80;45.70;;;;;;4935057;29;20200;-43
2022/10/20 03:55:10;;;;;;;1.55;0.70;;;22.80;45.60;;;;;;4935549;29;20234;-38
2022/10/20 03:57:41;;;;;;;3.63;0.80;;;22.80;45.30;;;;;;4934921;29;20227;-43
2022/10/20 04:00:13;;;;;;;1.23;0.50;;;22.80;45.00;;;;;;4940907;29;20199;-46
2022/10/20 04:02:51;;;;;;;1.85;0.70;;;22.90;44.50;;;;;;4954176;28;20221;-41
2022/10/20 04:05:23;;;;;;;1.92;0.70;;;22.90;44.10;;;;;;4953643;28;20238;-43
2022/10/20 04:07:53;;;;;;;1.90;0.80;;;22.90;44.00;;;;;;4954190;28;20659;-46
2022/10/20 04:10:24;;;;;;;0.82;0.57;;;22.90;43.80;;;;;;4952524;28;20191;-43
2022/10/20 04:12:58;;;;;;;3.15;0.73;;;22.90;43.70;;;;;;4953471;28;20257;-40
2022/10/20 04:15:29;;;;;;;3.03;0.80;;;23.00;43.10;;;;;;4953680;28;20226;-37
2022/10/20 04:18:02;;;;;;;3.42;0.80;;;22.90;42.60;;;;;;4953683;28;20226;-48
2022/10/20 04:20:32;;;;;;;1.95;0.68;;;23.00;42.90;;;;;;4954054;28;20214;-42
2022/10/20 04:23:03;;;;;;;0.90;0.60;;;23.00;43.20;;;;;;4953636;28;20211;-41
2022/10/20 04:25:34;;;;;;;1.27;0.70;;;23.00;43.20;;;;;;4952854;28;20191;-48
2022/10/20 04:28:04;;;;;;;1.30;0.60;;;23.00;43.10;;;;;;4935621;29;20200;-35
2022/10/20 04:30:35;;;;;;;2.45;0.70;;;23.00;43.00;;;;;;4940372;29;20191;-40
2022/10/20 04:33:08;;;;;;;1.67;0.57;;;23.00;42.80;;;;;;4953061;28;20217;-41
2022/10/20 04:35:38;;;;;;;1.23;0.50;;;23.10;42.80;;;;;;4945971;28;20239;-43
2022/10/20 04:38:09;;;;;;;2.58;0.73;;;23.10;42.80;;;;;;4932474;29;20191;-39
2022/10/20 04:40:40;;;;;;;1.30;0.60;;;23.10;42.70;;;;;;4932726;29;20199;-41
2022/10/20 04:43:13;;;;;;;1.02;0.60;;;23.10;42.80;;;;;;4934782;29;20199;-40
2022/10/20 04:45:44;;;;;;;1.80;0.98;;;23.20;42.60;;;;;;4933526;29;20226;-41
2022/10/20 04:48:17;;;;;;;1.23;0.40;;;23.20;42.80;;;;;;4934479;29;20203;-36
2022/10/20 04:50:47;;;;;;;1.52;0.77;;;23.20;43.00;;;;;;4934139;29;20211;-36
2022/10/20 04:53:18;;;;;;;1.00;0.50;;;23.20;43.10;;;;;;4935051;29;20220;-37
2022/10/20 04:56:00;;;;;;;1.45;0.60;;;23.20;43.20;;;;;;4933948;29;20238;-36
2022/10/20 04:58:31;;;;;;;1.42;0.68;;;23.20;43.10;;;;;;4934834;29;20241;-43
2022/10/20 05:01:04;;;;;;;1.38;0.60;;;23.20;43.20;;;;;;4934097;29;20203;-38
2022/10/20 05:03:40;;;;;;;0.80;0.63;;;23.30;43.30;;;;;;4933586;29;20195;-36
2022/10/20 05:06:13;;;;;;;2.28;0.88;;;23.30;43.30;;;;;;4934449;29;20215;-39
2022/10/20 05:08:48;;;;;;;1.23;0.80;;;23.20;43.00;;;;;;4933926;29;20204;-35
2022/10/20 05:11:20;;;;;;;0.95;0.63;;;23.30;42.90;;;;;;4934344;29;20712;-35
2022/10/20 05:13:50;;;;;;;1.38;0.60;;;23.30;42.90;;;;;;4935681;29;20195;-42
2022/10/20 05:16:21;;;;;;;1.83;0.80;;;23.30;42.90;;;;;;4944505;28;20227;-35
2022/10/20 05:18:56;;;;;;;2.53;0.52;;;23.30;43.10;;;;;;4952488;28;20201;-36
2022/10/20 05:21:28;;;;;;;1.55;0.70;;;23.30;43.10;;;;;;4952744;28;20754;-37
2022/10/20 05:24:00;;;;;;;1.75;0.73;;;23.30;43.00;;;;;;4953048;28;20203;-36
2022/10/20 05:26:33;;;;;;;2.45;0.93;;;23.30;42.80;;;;;;4943962;28;20570;-36
2022/10/20 05:29:05;;;;;;;3.38;1.20;;;23.30;42.60;;;;;;4933045;29;20203;-36
2022/10/20 05:31:39;;;;;;;1.00;0.60;;;23.30;42.40;;;;;;4933190;29;20219;-38
2022/10/20 05:34:12;;;;;;;2.38;0.80;;;23.30;42.60;;;;;;4933128;29;20207;-42
2022/10/20 05:36:43;;;;;;;1.27;0.55;;;23.30;42.70;;;;;;4933413;29;20770;-36
2022/10/20 05:39:14;;;;;;;3.50;0.95;;;23.30;43.00;;;;;;4933895;29;20199;-39
2022/10/20 05:41:44;;;;;;;3.53;1.30;;;23.30;43.10;;;;;;4933307;29;20212;-35
2022/10/20 05:44:15;;;;;;;3.00;1.30;;;23.40;43.30;;;;;;4933938;29;20199;-42
2022/10/20 05:46:46;;;;;;;3.25;1.58;;;23.40;43.30;;;;;;4933527;29;20219;-49
2022/10/20 05:49:19;;;;;;;3.60;2.42;;;23.40;43.30;;;;;;4933330;29;20574;-39
2022/10/20 05:51:50;;;;;;;6.43;2.30;;;23.40;43.30;;;;;;4933701;29;20598;-36
2022/10/20 05:54:21;;;;;;;6.75;3.25;;;23.40;43.30;;;;;;4934010;29;20691;-40
2022/10/20 05:56:51;;;;;;;7.28;3.17;;;23.40;43.20;;;;;;4933112;29;20246;-42
2022/10/20 05:59:22;;;;;;;8.23;3.03;;;23.40;43.00;;;;;;4933319;29;20195;-40
2022/10/20 06:01:53;;;;;;;6.65;3.10;;;23.40;43.00;;;;;;4932993;29;20196;-39
2022/10/20 06:04:26;;;;;;;7.82;3.72;;;23.40;42.90;;;;;;4933518;29;20211;-46
2022/10/20 06:06:58;;;;;;;7.70;4.07;;;23.40;42.90;;;;;;4932975;28;20266;-43
2022/10/20 06:09:28;;;;;;;7.97;4.97;;;23.40;42.90;;;;;;4933476;29;20648;-46
2022/10/20 06:12:00;;;;;;;9.77;3.35;;;23.50;43.00;;;;;;4933506;29;20192;-38
2022/10/20 06:14:30;;;;;;;7.97;3.60;;;23.40;43.10;;;;;;4933639;29;20658;-38
2022/10/20 06:17:01;;;;;;;7.85;3.70;;;23.50;43.40;;;;;;4933280;29;20234;-39
2022/10/20 06:19:34;;;;;;;6.68;3.40;;;23.50;43.60;;;;;;4932852;29;20196;-45
2022/10/20 06:22:05;;;;;;;8.52;3.40;;;23.50;43.60;;;;;;4933369;29;20211;-37
2022/10/20 06:24:35;;;;;;;9.00;4.10;;;23.50;43.80;;;;;;4933899;29;20208;-43
2022/10/20 06:27:06;;;;;;;6.28;3.40;;;23.50;43.80;;;;;;4932594;29;20231;-40
2022/10/20 06:29:37;;;;;;;8.15;3.22;;;23.50;43.80;;;;;;4933381;29;20206;-42
2022/10/20 06:32:08;;;;;;;8.75;3.67;;;23.50;43.60;;;;;;4946461;28;20569;-38
2022/10/20 06:34:40;;;;;;;8.38;3.28;;;23.50;43.50;;;;;;4955779;28;20234;-36
2022/10/20 06:37:12;;;;;;;6.75;3.05;;;23.50;43.50;;;;;;4954972;28;20249;-38
2022/10/20 06:39:42;;;;;;;8.32;3.33;;;23.50;43.50;;;;;;4954475;28;20206;-43
2022/10/20 06:42:13;;;;;;;7.65;3.38;;;23.50;43.70;;;;;;4954924;28;20210;-36
2022/10/20 06:44:44;;;;;;;5.97;3.08;;;23.50;43.80;;;;;;4955427;28;20203;-38
2022/10/20 06:47:15;;;;;;;9.23;3.05;;;23.40;43.70;;;;;;4945036;28;20212;-42
2022/10/20 06:49:49;;;;;;;4.55;2.47;;;23.40;43.90;;;;;;4935200;29;20192;-37
2022/10/20 06:52:20;;;;;;;6.07;2.83;;;23.40;44.00;;;;;;4935321;29;20571;-41
2022/10/20 06:54:50;;;;;;;6.00;2.70;;;23.40;44.10;;;;;;4934900;29;20200;-43
2022/10/20 06:57:21;;;;;;;5.28;2.50;;;23.40;44.30;;;;;;4935020;29;20747;-43
2022/10/20 06:59:52;;;;;;;5.43;2.53;;;23.40;44.30;;;;;;4935402;29;20199;-40
2022/10/20 07:02:23;;;;;;;5.82;2.67;;;23.40;44.40;;;;;;4935029;29;20461;-45
2022/10/20 07:04:55;;;;;;;6.80;3.25;;;23.40;44.30;;;;;;4935416;29;20195;-40
2022/10/20 07:07:26;;;;;;;5.18;2.88;;;23.40;44.30;;;;;;4934978;29;20224;-47
2022/10/20 07:09:57;;;;;;;4.90;2.03;;;23.40;44.10;;;;;;4937115;29;20188;-37
2022/10/20 07:12:27;;;;;;;6.10;2.30;;;23.40;44.00;;;;;;4935242;29;20234;-39
2022/10/20 07:14:58;;;;;;;6.65;2.42;;;23.30;44.00;;;;;;4935084;29;20561;-37
2022/10/20 07:17:29;;;;;;;4.75;2.50;;;23.30;44.00;;;;;;4934305;29;20219;-40
2022/10/20 07:20:01;;;;;;;7.65;2.50;;;23.30;44.10;;;;;;4935347;29;20209;-44
2022/10/20 07:22:32;;;;;;;4.65;2.30;;;23.30;44.30;;;;;;4935173;29;20203;-42
2022/10/20 07:25:05;;;;;;;4.20;2.13;;;23.30;44.30;;;;;;4935093;29;20211;-37
2022/10/20 07:27:35;;;;;;;6.18;2.65;;;23.20;44.20;;;;;;4934402;29;20279;-44
2022/10/20 07:30:07;;;;;;;6.07;2.10;;;23.20;44.20;;;;;;4934734;29;20196;-44
2022/10/20 07:32:38;;;;;;;4.28;1.77;;;23.20;44.20;;;;;;4934743;29;20214;-37
2022/10/20 07:35:11;;;;;;;5.93;2.55;;;23.20;44.30;;;;;;4934873;29;20679;-46
2022/10/20 07:37:42;;;;;;;3.83;2.20;;;23.10;44.30;;;;;;4934564;29;20652;-36
2022/10/20 07:40:13;;;;;;;3.90;1.85;;;23.10;44.30;;;;;;4934278;29;20199;-41
2022/10/20 07:42:45;;;;;;;5.05;2.20;;;23.10;44.30;;;;;;4935213;29;20210;-37
2022/10/20 07:45:15;;;;;;;2.95;1.80;;;23.10;44.30;;;;;;4934544;29;20196;-44
2022/10/20 07:47:46;;;;;;;5.75;2.67;;;23.10;44.30;;;;;;4934293;29;20199;-42
2022/10/20 07:50:19;;;;;;;3.45;2.17;;;23.00;44.20;;;;;;4934477;29;20202;-39
2022/10/20 07:52:53;;;;;;;4.05;2.20;;;23.00;44.30;;;;;;4934538;29;20195;-42
2022/10/20 07:55:24;;;;;;;2.60;1.60;;;23.00;44.30;;;;;;4934434;29;20203;-46
2022/10/20 07:57:55;;;;;;;4.82;2.10;;;23.00;44.30;;;;;;4934188;29;20199;-40
2022/10/20 08:00:25;;;;;;;4.15;2.08;;;23.00;44.30;;;;;;4934355;29;20203;-42
2022/10/20 08:02:56;;;;;;;3.63;2.22;;;22.90;44.30;;;;;;4933854;29;20661;-39
2022/10/20 08:05:29;;;;;;;3.70;1.88;;;22.90;44.40;;;;;;4934169;29;20217;-39
2022/10/20 08:07:59;;;;;;;4.03;1.90;;;22.90;44.90;;;;;;4934031;29;20203;-44
2022/10/20 08:10:30;;;;;;;4.75;1.80;;;22.90;44.30;;;;;;4934267;29;20200;-37
2022/10/20 08:13:01;;;;;;;3.65;1.70;;;22.80;44.10;;;;;;4934176;29;20205;-43
2022/10/20 08:15:32;;;;;;;4.13;1.58;;;22.70;44.00;;;;;;4934274;29;20200;-48
2022/10/20 08:18:02;;;;;;;3.38;1.30;;;22.80;44.10;;;;;;4933178;29;20196;-40
2022/10/20 08:20:35;;;;;;;3.60;1.67;;;22.70;44.10;;;;;;4933222;29;20220;-36
2022/10/20 08:23:06;;;;;;;3.22;1.75;;;22.70;44.00;;;;;;4934124;29;20622;-43
2022/10/20 08:25:36;;;;;;;3.92;1.75;;;22.70;44.20;;;;;;4933899;29;20202;-37
2022/10/20 08:28:07;;;;;;;2.67;1.48;;;22.70;44.10;;;;;;4933942;29;20206;-45
2022/10/20 08:30:38;;;;;;;4.28;1.88;;;22.60;44.10;;;;;;4932260;29;20203;-43
2022/10/20 08:33:09;;;;;;;3.80;1.50;;;22.60;44.20;;;;;;4934418;29;20203;-46
2022/10/20 08:35:42;;;;;;;2.67;1.42;;;22.60;44.30;;;;;;4934512;29;20223;-43
2022/10/20 08:38:12;;;;;;;3.55;1.60;;;22.50;44.20;;;;;;4934432;29;20203;-36
2022/10/20 08:40:44;;;;;;;2.38;1.48;;;22.50;44.30;;;;;;4934164;29;20191;-47
2022/10/20 08:43:20;;;;;;;3.50;1.58;;;22.50;44.40;;;;;;4935575;29;20204;-41
2022/10/20 08:45:50;;;;;;;3.97;1.75;;;22.50;44.50;;;;;;4935202;29;20223;-41
2022/10/20 08:48:25;;;;;;;2.45;1.58;;;22.50;44.60;;;;;;4934116;29;20564;-40
2022/10/20 08:50:58;;;;;;;2.83;1.45;;;22.50;44.60;;;;;;4933930;29;20667;-40
2022/10/20 08:53:40;;;;;;;3.40;1.30;;;22.40;44.60;;;;;;4934512;29;20195;-37
2022/10/20 08:56:14;;;;;;;3.55;1.73;;;22.40;44.60;;;;;;4933546;29;20246;-44
2022/10/20 08:58:46;;;;;;;2.80;1.70;;;22.40;44.70;;;;;;4933771;29;20202;-42
2022/10/20 09:01:23;;;;;;;2.10;1.25;;;22.40;44.60;;;;;;4937032;29;20196;-39
2022/10/20 09:04:01;;;;;;;3.97;1.20;;;22.30;44.60;;;;;;4934109;29;20199;-40
2022/10/20 09:06:34;;;;;;;4.50;1.42;;;22.30;44.70;;;;;;4914916;29;20220;-40
2022/10/20 09:09:05;;;;;;;3.47;1.13;;;22.30;44.70;;;;;;4916020;29;20196;-42
2022/10/20 09:11:41;;;;;;;2.78;1.38;;;22.20;44.70;;;;;;4933879;29;20199;-37
2022/10/20 09:14:13;;;;;;;3.88;1.50;;;22.20;44.70;;;;;;4933847;29;20195;-40
2022/10/20 09:16:45;;;;;;;2.97;1.60;;;22.20;44.80;;;;;;4934062;29;20227;-40
2022/10/20 09:19:19;;;;;;;3.17;1.40;;;22.10;44.80;;;;;;4933693;29;20595;-35
2022/10/20 09:21:56;;;;;;;2.42;1.20;;;22.10;44.80;;;;;;4933093;29;20219;-36
2022/10/20 09:24:30;;;;;;;3.80;1.38;;;22.10;44.80;;;;;;4934322;29;20667;-36
2022/10/20 09:27:18;;;;;;;3.17;1.50;;;22.00;44.70;;;;;;4936671;28;20274;-39
2022/10/20 09:29:48;;;;;;;4.38;1.70;;;22.10;44.80;;;;;;4933284;29;20188;-41
2022/10/20 09:32:33;;;;;;;4.75;1.60;;;22.00;44.70;;;;;;4933124;29;20199;-38
2022/10/20 09:35:20;;;;;;;3.63;1.40;;;22.00;44.70;;;;;;4932487;29;20191;-38
2022/10/20 09:38:00;;;;;;;2.90;1.60;;;22.00;44.90;;;;;;4933077;29;20588;-41
2022/10/20 09:40:31;;;;;;;5.80;1.70;;;21.90;45.00;;;;;;4933469;29;20558;-38
2022/10/20 09:43:13;;;;;;;3.90;1.60;;;21.90;45.00;;;;;;4932332;29;20211;-41
2022/10/20 09:45:54;;;;;;;2.85;1.30;;;21.90;45.10;;;;;;4933998;29;20227;-44
2022/10/20 09:48:27;;;;;;;2.70;1.40;;;21.80;45.10;;;;;;4933156;29;20196;-36
2022/10/20 09:51:00;;;;;;;2.70;1.30;;;21.80;45.20;;;;;;4933946;29;20191;-44
2022/10/20 09:53:37;;;;;;;5.22;1.80;;;21.80;45.10;;;;;;4933851;29;20566;-39
2022/10/20 09:56:08;;;;;;;3.30;1.33;;;21.70;45.10;;;;;;4933432;29;20221;-47
2022/10/20 09:58:41;;;;;;;3.63;1.52;;;21.70;45.10;;;;;;4933720;29;20592;-50
2022/10/20 10:01:17;;;;;;;3.22;1.60;;;21.70;45.10;;;;;;4932556;29;20195;-39
2022/10/20 10:03:50;;;;;;;1.52;1.30;;;21.70;45.10;;;;;;4933350;29;20210;-40
2022/10/20 10:06:34;;;;;;;4.68;1.52;;;21.60;45.10;;;;;;4932566;29;20710;-41
2022/10/20 10:09:23;;;;;;;4.20;1.58;;;21.60;45.10;;;;;;4936874;29;20560;-48
2022/10/20 10:12:01;;;;;;;4.28;1.40;;;21.60;45.10;;;;;;4936778;29;20203;-39
2022/10/20 10:14:34;;;;;;;2.42;1.40;;;21.60;45.20;;;;;;4936525;29;20207;-42
2022/10/20 10:17:05;;;;;;;2.58;1.33;;;21.60;45.30;;;;;;4936559;29;20235;-45
2022/10/20 10:19:36;;;;;;;2.97;1.48;;;21.50;45.30;;;;;;4936926;29;20207;-39
2022/10/20 10:22:09;;;;;;;4.03;1.63;;;21.50;45.50;;;;;;4937156;29;20203;-39
2022/10/20 10:24:47;;;;;;;4.13;1.38;;;21.40;45.50;;;;;;4937084;29;20279;-47
2022/10/20 10:27:27;;;;;;;4.00;1.85;;;21.40;45.50;;;;;;4935672;29;20226;-39
2022/10/20 10:30:17;;;;;;;4.45;1.80;;;21.40;45.60;;;;;;4937321;29;20238;-43
2022/10/20 10:32:49;;;;;;;4.32;1.58;;;21.40;45.60;;;;;;4936730;29;20203;-48
2022/10/20 10:35:26;;;;;;;2.53;1.42;;;21.30;45.50;;;;;;4936636;29;20199;-41
2022/10/20 10:37:57;;;;;;;2.33;1.40;;;21.30;45.50;;;;;;4937294;29;20321;-37
2022/10/20 10:40:36;;;;;;;3.85;1.50;;;21.30;45.50;;;;;;4936802;29;20196;-46
2022/10/20 10:43:28;;;;;;;4.22;1.60;;;21.30;45.60;;;;;;4937260;29;20199;-41
2022/10/20 10:46:03;;;;;;;4.40;1.60;;;21.30;45.60;;;;;;4936656;29;20225;-38
2022/10/20 10:49:00;;;;;;;3.95;1.52;;;21.20;45.50;;;;;;4935606;29;20688;-39
2022/10/20 10:51:40;;;;;;;2.97;1.80;;;21.20;45.60;;;;;;4918419;29;20271;-46
2022/10/20 10:54:22;;;;;;;3.58;1.67;;;21.20;45.60;;;;;;4936581;29;20195;-37
2022/10/20 10:56:59;;;;;;;3.85;1.70;;;21.20;45.80;;;;;;4936418;29;20227;-44
2022/10/20 10:59:33;;;;;;;4.57;1.88;;;21.10;45.80;;;;;;4936230;29;20210;-38
2022/10/20 11:02:25;;;;;;;3.13;1.55;;;21.10;45.80;;;;;;4936376;29;20195;-40
2022/10/20 11:05:30;;;;;;;4.35;1.75;;;21.00;45.90;;;;;;4936195;29;20204;-40
2022/10/20 11:08:13;;;;;;;3.65;1.58;;;21.00;45.90;;;;;;4933707;29;20675;-45
2022/10/20 11:10:53;;;;;;;2.85;1.55;;;21.00;45.90;;;;;;4936375;29;20203;-37
2022/10/20 11:13:35;;;;;;;3.83;1.75;;;20.90;45.90;;;;;;4935561;29;20214;-41
2022/10/20 11:16:22;;;;;;;3.13;1.52;;;20.90;45.90;;;;;;4936669;29;20211;-38
2022/10/20 11:19:14;;;;;;;3.50;1.70;;;20.90;45.90;;;;;;4934896;29;20625;-37
2022/10/20 11:21:54;;;;;;;4.40;1.95;;;20.90;46.00;;;;;;4935505;29;20211;-36
2022/10/20 11:24:49;;;;;;;2.60;1.40;;;20.90;46.00;;;;;;4921915;29;20670;-46
2022/10/20 11:27:23;;;;;;;3.65;1.67;;;20.90;46.00;;;;;;4930934;29;20220;-37
2022/10/20 11:30:06;;;;;;;2.78;1.42;;;20.80;46.10;;;;;;4935598;29;20198;-40
2022/10/20 11:32:40;;;;;;;4.07;1.73;;;20.80;46.10;;;;;;4916321;29;20279;-43
2022/10/20 11:35:22;;;;;;;4.90;1.63;;;20.80;46.20;;;;;;4916956;29;20196;-38
2022/10/20 11:37:58;;;;;;;3.17;1.42;;;20.80;46.30;;;;;;4945437;29;20235;-42
2022/10/20 11:40:33;;;;;;;4.55;1.90;;;20.70;46.30;;;;;;4955088;28;20550;-43
2022/10/20 11:43:14;;;;;;;5.53;1.77;;;20.70;46.30;;;;;;4954734;28;20210;-41
2022/10/20 11:45:53;;;;;;;3.75;1.60;;;20.70;46.40;;;;;;4953561;28;20683;-39
2022/10/20 11:48:29;;;;;;;4.63;2.08;;;20.70;46.30;;;;;;4954032;28;20808;-40
2022/10/20 11:51:21;;;;;;;4.85;2.30;;;20.60;46.30;;;;;;4953848;28;20206;-38
2022/10/20 11:54:08;;;;;;;3.45;1.60;;;20.60;46.30;;;;;;4936654;28;20204;-36
2022/10/20 11:56:57;;;;;;;5.03;1.77;;;20.60;46.30;;;;;;4934265;29;20228;-36
2022/10/20 11:59:51;;;;;;;4.28;1.95;;;20.60;46.30;;;;;;4934317;29;20578;-36
2022/10/20 12:03:01;;;;;;;4.88;2.00;;;20.60;46.40;;;;;;4933754;29;20202;-38
2022/10/20 12:05:55;;;;;;;3.95;1.90;;;20.50;46.40;;;;;;4934218;29;20675;-39
2022/10/20 12:08:40;;;;;;;4.03;1.92;;;20.50;46.50;;;;;;4933905;29;20200;-39
2022/10/20 12:11:18;;;;;;;2.67;1.48;;;20.40;46.50;;;;;;4934517;29;20684;-36
2022/10/20 12:13:59;;;;;;;2.85;1.58;;;20.40;46.50;;;;;;4934462;29;20199;-41
2022/10/20 12:17:04;;;;;;;3.88;1.90;;;20.40;46.60;;;;;;4934114;29;20278;-36
2022/10/20 12:19:37;;;;;;;5.20;1.70;;;20.40;46.60;;;;;;4933526;29;20695;-37
2022/10/20 12:22:31;;;;;;;4.15;1.90;;;20.40;46.60;;;;;;4933271;29;20215;-41
2022/10/20 12:25:23;;;;;;;4.97;1.88;;;20.40;46.60;;;;;;4933769;29;20207;-44
2022/10/20 12:28:26;;;;;;;4.80;1.98;;;20.40;46.70;;;;;;4933647;29;20199;-40
2022/10/20 12:30:59;;;;;;;2.90;1.33;;;20.30;46.60;;;;;;4932572;29;20226;-45
2022/10/20 12:34:02;;;;;;;3.25;1.77;;;20.30;46.60;;;;;;4933452;29;20227;-43
2022/10/20 12:36:39;;;;;;;4.30;2.03;;;20.30;46.60;;;;;;4933773;29;20298;-37
2022/10/20 12:39:23;;;;;;;3.65;1.67;;;20.20;46.70;;;;;;4933585;29;20207;-42
2022/10/20 12:42:08;;;;;;;3.88;1.92;;;20.20;46.70;;;;;;4933707;29;20233;-45
2022/10/20 12:44:44;;;;;;;5.50;1.90;;;20.20;46.90;;;;;;4933243;29;20211;-51
2022/10/20 12:47:22;;;;;;;4.28;1.88;;;20.10;46.90;;;;;;4933284;29;20219;-42
2022/10/20 12:49:58;;;;;;;4.47;1.92;;;20.10;46.90;;;;;;4933172;29;20203;-39
2022/10/20 12:52:41;;;;;;;4.20;1.80;;;20.10;46.90;;;;;;5140686;27;20556;-37
2022/10/20 12:55:19;;;;;;;4.18;1.90;;;20.10;46.90;;;;;;5128379;27;20188;-42
2022/10/20 12:57:50;;;;;;;3.80;1.90;;;20.10;46.90;;;;;;5087640;28;20195;-41
2022/10/20 13:00:57;;;;;;;3.67;1.70;;;20.10;46.90;;;;;;5092293;28;20189;-43
2022/10/20 13:03:46;;;;;;;3.45;1.38;;;20.10;46.90;;;;;;5107320;28;20197;-40
2022/10/20 13:06:44;;;;;;;3.85;1.95;;;20.10;46.80;;;;;;5107647;28;20213;-41
2022/10/20 13:09:26;;;;;;;4.32;1.90;;;20.00;46.80;;;;;;5106812;28;20198;-37
2022/10/20 13:12:05;;;;;;;3.30;1.73;;;20.00;46.90;;;;;;5107079;28;20630;-41
2022/10/20 13:14:48;;;;;;;5.18;2.08;;;20.00;47.00;;;;;;5107282;28;20801;-39
2022/10/20 13:17:40;;;;;;;5.38;1.88;;;19.90;47.10;;;;;;5107172;28;20217;-41
2022/10/20 13:20:25;;;;;;;5.43;2.00;;;19.90;47.10;;;;;;5107246;28;20539;-45
2022/10/20 13:22:58;;;;;;;3.17;1.88;;;19.90;47.10;;;;;;5106559;28;20185;-47
2022/10/20 13:25:39;;;;;;;5.28;2.22;;;19.80;47.10;;;;;;5106488;28;20704;-40
2022/10/20 13:28:21;;;;;;;7.80;2.10;;;19.80;47.10;;;;;;5106746;28;20676;-37
2022/10/20 13:31:19;;;;;;;3.85;1.88;;;19.80;47.00;;;;;;5106664;28;20700;-45